Tiempo atmosférico en la estación meteorológica de Gotarrendura , Ávila (920 m.)



Fecha
DESCASC
Temp. máxima en grados centígrados (hora)
DESCASC
Temp. mínima en grados centígrados (hora)
DESCASC
Temp. media en grados centígrados
DESCASC
Racha de viento máxima en m/sg (hora)
DESCASC
Velocidad máxima media en intervalos de 10 minutos(hora)
DESCASC
Precipitaciones diarias en mm
DESCASC
Precipitaciones de 00:00 a 06:00 en mm
DESCASC
Precipitaciones de 06:00 a 12:00 en mm
DESCASC
Precipitaciones de 12:00 a 18:00 en mm
DESCASC
Precipitaciones de 18:00 a 24:00 en mm
DESCASC
03-01-2020 7.4 (16:40) -1.2 (-00:0) 3.1 4.44 (11:10) 2.78 (11:00) 0 0 0 0 0
17-01-2020 9.7 (16:10) 1.2 (00:00) 5.4 12.22 (13:10) 9.17 (13:20) 0 0 0 0 0
16-01-2020 14.3 (14:30) 6.2 (00:00) 10.3 12.5 (16:50) 7.78 (16:50) 0 0 0 0 0
15-01-2020 12 (16:30) 4.9 (00:00) 8.5 10 (01:30) 7.22 (01:30) 1.2 0 0 1.2 0
14-01-2020 9.4 (16:10) -5.3 (-00:0) 2 10.56 (23:59) 5.56 (22:50) 0 0 0 0 0
13-01-2020 8.5 (15:20) -6.3 (-00:0) 1.1 7.22 (12:20) 5.28 (12:30) 0 0 0 0 0
12-01-2020 8.1 (16:30) -6.4 (-00:0) 0.9 3.89 (13:10) 2.78 (13:40) 0 0 0 0 0
11-01-2020 7.5 (15:40) -4.8 (-00:0) 1.3 3.61 (15:50) 2.5 (16:00) 0 0 0 0 0
10-01-2020 6.4 (15:20) -2 (-00:0) 2.2 7.22 (00:10) 5 (00:10) 0 0 0 0 0
09-01-2020 12.8 (16:20) -0.7 (-00:0) 6.1 10.83 (21:00) 6.67 (18:30) 0 0 0 0 0
08-01-2020 12.1 (15:00) -4 (-00:0) 4.1 3.61 (14:30) 2.78 (15:10) 0 0 0 0 0
07-01-2020 9.9 (16:40) -5.9 (-00:0) 2 2.78 (13:50) 2.22 (14:00) 0.2 0 0.2 0 0
06-01-2020 12 (15:00) -5.1 (-00:0) 3.5 3.61 (20:20) 2.5 (20:30) 0 0 0 0 0
05-01-2020 6.3 (15:00) -5.3 (-00:0) 0.5 4.72 (02:30) 3.06 (01:20) 0 0 0 0 0
04-01-2020 4.4 (16:20) -2.2 (-00:0) 1.1 5 (16:20) 3.06 (12:50) 0 0 0 0 0
19-12-2019 13.5 (12:20) 6.7 (00:50) 10.1 16.94 (21:20) 9.17 (03:10) 9.4 0 0 2.6 6.8
02-01-2020 13.9 (13:50) -1.4 (-00:0) 6.2 3.89 (22:50) 2.78 (16:10) 0 0 0 0 0
01-01-2020 14.1 (14:50) -3.3 (-00:0) 5.4 3.33 (23:30) 2.22 (17:30) 0 0 0 0 0
31-12-2019 12.8 (12:40) -2 (-00:0) 5.4 3.89 (13:30) 2.5 (13:30) 0 0 0 0 0
30-12-2019 -- (--) -- (--) -- -- (--) -- (--) -- 0 0 -- 0
29-12-2019 14.2 (16:10) -2.2 (-00:0) 6 3.06 (19:40) 2.5 (19:40) 0 0 0 0 0
28-12-2019 8 (11:40) -5.5 (-00:0) 1.3 4.72 (13:10) 3.61 (13:10) 0.2 0 0.2 0 0
27-12-2019 2.8 (00:00) -3.8 (-00:0) -0.5 4.17 (00:20) 3.33 (00:30) 0 0 0 0 0
26-12-2019 10.9 (15:00) 2.2 (00:00) 6.5 6.11 (01:30) 4.44 (01:30) 0 0 0 0 0
25-12-2019 15.8 (14:20) 5.1 (00:00) 10.5 8.33 (03:00) 5 (03:00) 0 0 0 0 0
24-12-2019 15.3 (13:50) 4.2 (00:00) 9.8 5 (23:59) 3.06 (20:50) 0 0 0 0 0
23-12-2019 13.4 (15:10) 0.9 (00:00) 7.1 8.33 (00:10) 5.83 (00:10) 0 0 0 0 0
22-12-2019 12.2 (13:10) 5 (00:00) 8.6 23.06 (01:40) 17.22 (01:40) 0 0 0 0 0
21-12-2019 15.4 (11:50) 8.7 (00:00) 12 27.22 (23:50) 19.17 (23:50) 0 0 0 0 0
20-12-2019 13.2 (01:40) 6.2 (00:00) 9.7 25 (18:50) 15 (22:20) 8.6 2.2 3.4 2.6 0.4

Gráficas

Temp. máximas Temp. mínimas Temp. medias Precipitaciones Rachas de viento máximas Velocidades máximas media en intervalos de 10 minutos

Datos horarios

Fecha y hora oficial Temperatura (ºC) Velocidad del viento (km/h) Dirección del viento Racha (km/h) Dirección de racha Precipitación (mm) Presión (hPa) Tendencia (hPa) Humedad (%)
2020-01-17 23:00:00 4 10 Sudeste 15 Sudeste 0 -- -- 83
2020-01-17 22:00:00 4.1 7 Sudeste 12 Este 0 -- -- 82
2020-01-17 21:00:00 2.9 4 Sur 11 Sur 0 -- -- 87
2020-01-17 20:00:00 3.1 4 Sur 7 Sur 0 -- -- 84
2020-01-17 19:00:00 4.7 0 Calma 11 Oeste 0 -- -- 78
2020-01-17 18:00:00 6.4 9 Oeste 20 Oeste 0 -- -- 73
2020-01-17 17:00:00 8.5 15 Oeste 23 Noroeste 0 -- -- 67
2020-01-17 16:00:00 9.3 16 Oeste 28 Oeste 0 -- -- 66
2020-01-17 15:00:00 8.7 19 Oeste 32 Noroeste 0 -- -- 67
2020-01-17 14:00:00 9.1 22 Oeste 44 Oeste 0 -- -- 66
2020-01-17 13:00:00 8.6 26 Oeste 32 Oeste 0 -- -- 77
2020-01-17 12:00:00 7.3 20 Oeste 29 Oeste 0 -- -- 83
2020-01-17 11:00:00 6.2 19 Oeste 28 Oeste 0 -- -- 92
2020-01-17 10:00:00 5.9 21 Oeste 30 Sudoeste 0 -- -- 95
2020-01-17 09:00:00 6 12 Sudoeste 26 Sudoeste 0 -- -- 87
2020-01-17 08:00:00 6 15 Sudoeste 31 Sur 0 -- -- 80
2020-01-17 07:00:00 5.9 18 Sudoeste 29 Sur 0 -- -- 82
2020-01-17 06:00:00 4 16 Sur 23 Sur 0 -- -- 85
2020-01-17 05:00:00 2 3 Sudeste 8 Sudeste 0 -- -- 84
2020-01-17 04:00:00 3.2 6 Sur 17 Sur 0 -- -- 85
2020-01-17 03:00:00 1.9 8 Sur 13 Sur 0 -- -- 89
2020-01-17 02:00:00 2.8 4 Este 13 Sudeste 0 -- -- 84
2020-01-17 01:00:00 6.1 9 Sudeste 26 Sur 0 -- -- 72
2020-01-17 00:00:00 7.8 12 Sur 26 Sur 0 -- -- 67
2020-01-16 23:00:00 8.1 14 Sur 24 Sur 0 -- -- 65
2020-01-16 22:00:00 8.5 11 Sur 25 Sur 0 -- -- 63
2020-01-16 21:00:00 8.9 16 Sur 30 Sudeste 0 -- -- 57
2020-01-16 20:00:00 8.7 12 Sur 39 Sur 0 -- -- 51
2020-01-16 19:00:00 9.5 19 Sur 42 Sur 0 -- -- 49
2020-01-16 18:00:00 9.8 19 Sur 37 Sur 0 -- -- 52
2020-01-16 17:00:00 10.6 27 Sur 45 Sur 0 -- -- 47
2020-01-16 16:00:00 12.1 15 Sur 37 Sur 0 -- -- 47
2020-01-16 15:00:00 13.5 18 Sur 33 Sur 0 -- -- 41
2020-01-16 14:00:00 14 20 Sur 35 Sur 0 -- -- 42
2020-01-16 13:00:00 12.7 19 Sudeste 40 Sudeste 0 -- -- 54
2020-01-16 12:00:00 11.1 18 Sudeste 35 Norte 0 -- -- 71
2020-01-16 11:00:00 10 22 Sudeste 33 Sudeste 0 -- -- 80
2020-01-16 10:00:00 7.4 22 Sudeste 35 Sudeste 0 -- -- 90
2020-01-16 09:00:00 6.5 19 Sudeste 33 Sudeste 0 -- -- 92
2020-01-16 08:00:00 6.6 19 Sudeste 37 Sudeste 0 -- -- 92
2020-01-16 07:00:00 6.3 17 Sudeste 33 Sudeste 0 -- -- 92
2020-01-16 06:00:00 6.6 18 Sudeste 36 Sudeste 0 -- -- 90
2020-01-16 05:00:00 6.7 16 Sudeste 34 Sur 0 -- -- 88
2020-01-16 04:00:00 7.3 20 Sudeste 34 Sudeste 0 -- -- 87
2020-01-16 03:00:00 6.9 21 Sudeste 37 Sudeste 0 -- -- 88
2020-01-16 02:00:00 6.8 19 Sudeste 36 Sur 0 -- -- 87
2020-01-16 01:00:00 7.1 22 Sudeste 33 Sudeste 0 -- -- 86
2020-01-16 00:00:00 8 16 Sudeste 32 Sudeste 0 -- -- 84
2020-01-15 23:00:00 6.4 4 Este 16 Sudeste 0 -- -- 86
2020-01-15 22:00:00 6.6 10 Sudeste 21 Sudeste 0 -- -- 84
2020-01-15 21:00:00 6.7 10 Sudeste 17 Sudeste 0 -- -- 86
2020-01-15 20:00:00 7.3 6 Sudeste 20 Sudeste 0 -- -- 85
2020-01-15 19:00:00 7.7 12 Sudeste 22 Sudeste 0 -- -- 82
2020-01-15 18:00:00 8.6 19 Sudeste 28 Sudeste 0 -- -- 79
2020-01-15 17:00:00 9.6 13 Sudeste 29 Sudoeste 0 -- -- 78
2020-01-15 16:00:00 10.7 18 Sudoeste 33 Sudoeste 0 -- -- 78
2020-01-15 15:00:00 9.2 8 Este 12 Este 0 -- -- 87
2020-01-15 14:00:00 7.4 3 Sudeste 13 Noroeste 0.6 -- -- 92
2020-01-15 13:00:00 7.6 9 Oeste 31 Sudeste 0.6 -- -- 88
2020-01-15 12:00:00 7.9 18 Sudeste 31 Sudeste 0 -- -- 73
2020-01-15 11:00:00 7.3 16 Sudeste 31 Sudeste 0 -- -- 74
2020-01-15 10:00:00 6.8 13 Sudeste 34 Sudeste 0 -- -- 74
2020-01-15 09:00:00 6.4 17 Sudeste 34 Sudeste 0 -- -- 73
2020-01-15 08:00:00 7.1 12 Sur 30 Sur 0 -- -- 67
2020-01-15 07:00:00 7.2 13 Sur 28 Sudeste 0 -- -- 62
2020-01-15 06:00:00 5.5 15 Este 26 Este 0 -- -- 78
2020-01-15 05:00:00 5.8 17 Este 34 Sur 0 -- -- 76
2020-01-15 04:00:00 5.9 16 Sur 28 Sudeste 0 -- -- 76
2020-01-15 03:00:00 4.9 16 Sur 28 Sudeste 0 -- -- 85
2020-01-15 02:00:00 5.4 15 Sur 36 Sudeste 0 -- -- 83
2020-01-15 01:00:00 5.1 19 Sudeste 35 Sur 0 -- -- 82
2020-01-15 00:00:00 5.1 19 Sur 38 Sudeste 0 -- -- 82
2020-01-14 23:00:00 4.7 19 Sudeste 30 Sur 0 -- -- 82
2020-01-14 22:00:00 3.9 10 Sur 21 Sur 0 -- -- 81
2020-01-14 21:00:00 3.6 9 Sudeste 22 Sudoeste 0 -- -- 78
2020-01-14 20:00:00 4.1 7 Sur 23 Sur 0 -- -- 77
2020-01-14 19:00:00 4.9 15 Sudeste 25 Sudeste 0 -- -- 72
2020-01-14 18:00:00 7.4 0 Calma 9 Sudeste 0 -- -- 67
2020-01-14 17:00:00 8.8 7 Sudeste 17 Este 0 -- -- 63
2020-01-14 16:00:00 9.2 3 Este 13 Oeste 0 -- -- 64
2020-01-14 15:00:00 9 9 Noroeste 20 Noroeste 0 -- -- 67
2020-01-14 14:00:00 8 7 Oeste 21 Oeste 0 -- -- 68
2020-01-14 13:00:00 7.8 13 Oeste 23 Sudoeste 0 -- -- 69
2020-01-14 12:00:00 5.8 7 Sudeste 16 Sudeste 0 -- -- 70
2020-01-14 11:00:00 2.6 11 Sudeste 16 Sudeste 0 -- -- 81
2020-01-14 10:00:00 -0.1 8 Sur 15 Sur 0 -- -- 90
2020-01-14 09:00:00 -4.8 6 Sur 11 Sur 0 -- -- 92
2020-01-14 08:00:00 -5.1 6 Sur 9 Sur 0 -- -- 92
2020-01-14 07:00:00 -4.8 0 Calma 7 Sudoeste 0 -- -- 88
2020-01-14 06:00:00 -3.8 5 Sudoeste 9 Sur 0 -- -- 87
2020-01-14 05:00:00 -2.4 6 Sur 16 Sudeste 0 -- -- 83
2020-01-14 04:00:00 -3 7 Sudeste 14 Sudeste 0 -- -- 88
2020-01-14 03:00:00 -0.5 12 Sudeste 18 Sudeste 0 -- -- 79
2020-01-14 02:00:00 -1.1 7 Sudeste 13 Sudeste 0 -- -- 84
2020-01-14 01:00:00 -1.9 8 Este 13 Este 0 -- -- 88
2020-01-14 00:00:00 -3.1 5 Sudeste 8 Sudeste 0 -- -- 90
2020-01-13 23:00:00 -2 2 Sur 6 Sur 0 -- -- 87
2020-01-13 22:00:00 -1.6 3 Sudoeste 8 Sudoeste 0 -- -- 82
2020-01-13 21:00:00 0.2 5 Sur 14 Sur 0 -- -- 79
2020-01-13 20:00:00 2.2 5 Sur 14 Sudeste 0 -- -- 72
2020-01-13 19:00:00 2.9 7 Sur 9 Sudeste 0 -- -- 69
2020-01-13 18:00:00 6 5 Sudeste 11 Sudeste 0 -- -- 59
2020-01-13 17:00:00 8.2 6 Este 11 Nordeste 0 -- -- 57
2020-01-13 16:00:00 8.5 6 Nordeste 11 Nordeste 0 -- -- 53
2020-01-13 15:00:00 8.1 4 Noroeste 20 Oeste 0 -- -- 54
2020-01-13 14:00:00 7.7 13 Oeste 25 Noroeste 0 -- -- 59
2020-01-13 13:00:00 6.8 12 Noroeste 26 Oeste 0 -- -- 67
2020-01-13 12:00:00 4.8 3 Sudoeste 8 Sudoeste 0 -- -- 64
2020-01-13 11:00:00 0.9 0 Calma 4 Sur 0 -- -- 88
2020-01-13 10:00:00 -3.4 4 Sur 5 Sur 0 -- -- 93
2020-01-13 09:00:00 -5.2 2 Sudeste 4 Sudeste 0 -- -- 91
2020-01-13 08:00:00 -5.5 3 Sudoeste 5 Oeste 0 -- -- 92
2020-01-13 07:00:00 -5.2 3 Sur 5 Sur 0 -- -- 96
2020-01-13 06:00:00 -6.2 0 Calma 2 Sur 0 -- -- 95
2020-01-13 05:00:00 -6.2 0 Calma 2 Nordeste 0 -- -- 94
2020-01-13 04:00:00 -5.5 0 Calma 4 Oeste 0 -- -- 93
2020-01-13 03:00:00 -4.7 2 Oeste 6 Oeste 0 -- -- 92
2020-01-13 02:00:00 -4.1 3 Sudoeste 8 Oeste 0 -- -- 91
2020-01-13 01:00:00 -3.6 0 Calma 6 Sur 0 -- -- 85
2020-01-13 00:00:00 -3.9 0 Calma 5 Sudeste 0 -- -- 90
2020-01-12 23:00:00 -3.5 3 Sur 6 Sudeste 0 -- -- 91
2020-01-12 22:00:00 -3.1 4 Sudeste 7 Sudeste 0 -- -- 91
2020-01-12 21:00:00 -2.6 2 Sur 3 Sur 0 -- -- 90
2020-01-12 20:00:00 -0.7 0 Calma 5 Noroeste 0 -- -- 84
2020-01-12 19:00:00 2.7 4 Norte 9 Noroeste 0 -- -- 83
2020-01-12 18:00:00 6.3 3 Noroeste 4 Noroeste 0 -- -- 66
2020-01-12 17:00:00 8 3 Noroeste 8 Noroeste 0 -- -- 63
2020-01-12 16:00:00 7.8 6 Norte 11 Nordeste 0 -- -- 59
2020-01-12 15:00:00 6.8 3 Nordeste 10 Noroeste 0 -- -- 70
2020-01-12 14:00:00 5.8 8 Noroeste 14 Norte 0 -- -- 71
2020-01-12 13:00:00 5.7 8 Noroeste 12 Noroeste 0 -- -- 67
2020-01-12 12:00:00 4.7 5 Noroeste 10 Noroeste 0 -- -- 72
2020-01-12 11:00:00 3.4 0 Calma 5 Sudeste 0 -- -- 72
2020-01-12 10:00:00 -1.2 2 Sudeste 8 Sur 0 -- -- 85
2020-01-12 09:00:00 -6 3 Sur 5 Sur 0 -- -- 89
2020-01-12 08:00:00 -5.5 0 Calma 7 Sur 0 -- -- 85
2020-01-12 07:00:00 -5.3 4 Sur 8 Sur 0 -- -- 88
2020-01-12 06:00:00 -4.9 3 Sur 6 Sudeste 0 -- -- 91
2020-01-12 05:00:00 -4.8 2 Sur 4 Sur 0 -- -- 93
2020-01-12 04:00:00 -4.4 0 Calma 8 Sur 0 -- -- 92
2020-01-12 03:00:00 -4.8 3 Sur 9 Sur 0 -- -- 92
2020-01-12 02:00:00 -4.4 4 Sur 7 Sur 0 -- -- 87
2020-01-12 01:00:00 -4.7 4 Sur 6 Sur 0 -- -- 91
2020-01-12 00:00:00 -4.8 0 Calma 9 Oeste 0 -- -- 92
2020-01-11 23:00:00 -3.4 0 Calma 6 Sudeste 0 -- -- 92
2020-01-11 22:00:00 -1.3 6 Sudeste 13 Sudeste 0 -- -- 96
2020-01-11 21:00:00 -1.7 0 Calma 8 Oeste 0 -- -- 97
2020-01-11 20:00:00 -0.8 3 Sudoeste 6 Oeste 0 -- -- 90
2020-01-11 19:00:00 1.3 2 Oeste 6 Norte 0 -- -- 84
2020-01-11 18:00:00 4.4 5 Norte 9 Norte 0 -- -- 80
2020-01-11 17:00:00 6.8 5 Norte 12 Norte 0 -- -- 71
2020-01-11 16:00:00 7.3 9 Norte 13 Norte 0 -- -- 71
2020-01-11 15:00:00 7 5 Norte 8 Noroeste 0 -- -- 66
2020-01-11 14:00:00 5.6 3 Nordeste 10 Nordeste 0 -- -- 75
2020-01-11 13:00:00 3.6 7 Noroeste 10 Norte 0 -- -- 86
2020-01-11 12:00:00 2.8 3 Noroeste 6 Noroeste 0 -- -- 88
2020-01-11 11:00:00 1 0 Calma 4 Este 0 -- -- 91
2020-01-11 10:00:00 -2.1 2 Sudeste 5 Sudeste 0 -- -- 100
2020-01-11 09:00:00 -2.3 3 Sudeste 10 Sudeste 0 -- -- 99
2020-01-11 08:00:00 -1.2 5 Sudeste 9 Sudeste 0 -- -- 98
2020-01-11 07:00:00 -0.1 4 Sudeste 9 Sudeste 0 -- -- 98
2020-01-11 06:00:00 0.3 2 Sudeste 6 Este 0 -- -- 98
2020-01-11 05:00:00 -0.7 0 Calma 4 Este 0 -- -- 98
2020-01-11 04:00:00 -2 0 Calma 6 Sudoeste 0 -- -- 98
2020-01-11 03:00:00 -3 4 Sur 7 Sur 0 -- -- 96
2020-01-11 02:00:00 -3.1 3 Sur 8 Sudoeste 0 -- -- 93
2020-01-11 01:00:00 -2.2 6 Sur 9 Sudoeste 0 -- -- 93
2020-01-11 00:00:00 -1.6 4 Sur 6 Sur 0 -- -- 93
2020-01-10 23:00:00 0.8 3 Este 23 Sudeste 0 -- -- 83
2020-01-10 22:00:00 0.9 8 Nordeste 14 Sudeste 0 -- -- 89
2020-01-10 21:00:00 1.9 4 Norte 18 Norte 0 -- -- 86
2020-01-10 20:00:00 2.9 4 Sudoeste 15 Nordeste 0 -- -- 84
2020-01-10 19:00:00 4.8 4 Noroeste 13 Nordeste 0 -- -- 78
2020-01-10 18:00:00 5.4 10 Nordeste 19 Nordeste 0 -- -- 72
2020-01-10 17:00:00 5.8 9 Nordeste 21 Norte 0 -- -- 70
2020-01-10 16:00:00 6.1 13 Nordeste 24 Nordeste 0 -- -- 68
2020-01-10 15:00:00 6 15 Nordeste 22 Nordeste 0 -- -- 73
2020-01-10 14:00:00 5 4 Norte 16 Norte 0 -- -- 78
2020-01-10 13:00:00 4.8 5 Noroeste 10 Norte 0 -- -- 80
2020-01-10 12:00:00 4.7 2 Noroeste 6 Sur 0 -- -- 77
2020-01-10 11:00:00 3.1 3 Sudoeste 6 Sudoeste 0 -- -- 85
2020-01-10 10:00:00 -0.6 4 Sur 8 Sudoeste 0 -- -- 97
2020-01-10 09:00:00 -2 5 Sudoeste 7 Oeste 0 -- -- 96
2020-01-10 08:00:00 -1.5 0 Calma 4 Oeste 0 -- -- 95
2020-01-10 07:00:00 -0.2 4 Sudoeste 15 Oeste 0 -- -- 93
2020-01-10 06:00:00 0.3 13 Oeste 15 Oeste 0 -- -- 95
2020-01-10 05:00:00 0.9 9 Oeste 13 Oeste 0 -- -- 97
2020-01-10 04:00:00 2.3 10 Oeste 14 Oeste 0 -- -- 99
2020-01-10 03:00:00 1.9 8 Oeste 14 Oeste 0 -- -- 98
2020-01-10 02:00:00 2.3 11 Oeste 20 Oeste 0 -- -- 96
2020-01-10 01:00:00 4.1 13 Oeste 26 Oeste 0 -- -- 94
2020-01-10 00:00:00 5.8 16 Oeste 27 Oeste 0 -- -- 90
2020-01-09 23:00:00 6.7 22 Oeste 31 Sudoeste 0 -- -- 85
2020-01-09 22:00:00 7.5 15 Sudoeste 32 Oeste 0 -- -- 85
2020-01-09 21:00:00 8.7 22 Oeste 39 Oeste 0 -- -- 81
2020-01-09 20:00:00 8.7 12 Sudoeste 20 Sudoeste 0 -- -- 87
2020-01-09 19:00:00 9.2 13 Oeste 38 Oeste 0 -- -- 85
2020-01-09 18:00:00 10.9 22 Oeste 36 Sudoeste 0 -- -- 78
2020-01-09 17:00:00 12.2 13 Sudoeste 19 Sudoeste 0 -- -- 72
2020-01-09 16:00:00 12.6 15 Sudoeste 28 Sudoeste 0 -- -- 74
2020-01-09 15:00:00 12.7 18 Sudoeste 28 Sudoeste 0 -- -- 73
2020-01-09 14:00:00 12.1 19 Sudoeste 29 Sudoeste 0 -- -- 77
2020-01-09 13:00:00 11 23 Sudoeste 30 Sudoeste 0 -- -- 79
2020-01-09 12:00:00 10.3 12 Sur 18 Sur 0 -- -- 72
2020-01-09 11:00:00 7.4 9 Sudoeste 17 Sur 0 -- -- 66
2020-01-09 10:00:00 3.4 6 Sur 11 Sudoeste 0 -- -- 87
2020-01-09 09:00:00 0.1 6 Sur 9 Sur 0 -- -- 94
2020-01-09 08:00:00 0.3 2 Sudeste 10 Este 0 -- -- 93
2020-01-09 07:00:00 0.6 6 Sudeste 10 Sur 0 -- -- 95
2020-01-09 06:00:00 -0.6 5 Sudoeste 9 Oeste 0 -- -- 94
2020-01-09 05:00:00 -0.2 2 Sur 8 Sudeste 0 -- -- 93
2020-01-09 04:00:00 -0.6 4 Sudeste 5 Sudeste 0 -- -- 93
2020-01-09 03:00:00 0.6 4 Sur 9 Sudoeste 0 -- -- 90
2020-01-09 02:00:00 0.5 4 Sur 9 Sudoeste 0 -- -- 90
2020-01-09 01:00:00 -0.2 5 Sur 6 Sur 0 -- -- 89
2020-01-09 00:00:00 0.7 2 Sur 8 Sur 0 -- -- 91
2020-01-08 23:00:00 0.5 0 Calma 5 Sudeste 0 -- -- 88
2020-01-08 22:00:00 0.9 2 Sur 5 Este 0 -- -- 87
2020-01-08 21:00:00 1.6 3 Sudeste 7 Sudeste 0 -- -- 85
2020-01-08 20:00:00 2.2 4 Sur 7 Sur 0 -- -- 85
2020-01-08 19:00:00 5 0 Calma 5 Noroeste 0 -- -- 72
2020-01-08 18:00:00 8.4 3 Noroeste 6 Noroeste 0 -- -- 64
2020-01-08 17:00:00 10.7 7 Noroeste 10 Noroeste 0 -- -- 64
2020-01-08 16:00:00 11.5 8 Noroeste 13 Noroeste 0 -- -- 58
2020-01-08 15:00:00 12.1 9 Noroeste 13 Noroeste 0 -- -- 41
2020-01-08 14:00:00 10.9 5 Noroeste 8 Noroeste 0 -- -- 49
2020-01-08 13:00:00 8.9 2 Noroeste 7 Noroeste 0 -- -- 71
2020-01-08 12:00:00 7.1 3 Norte 7 Noroeste 0 -- -- 71
2020-01-08 11:00:00 2.2 3 Sudeste 7 Sudeste 0 -- -- 84
2020-01-08 10:00:00 -2.7 2 Norte 5 Este 0 -- -- 92
2020-01-08 09:00:00 -3.9 0 Calma 2 Este 0 -- -- 91
2020-01-08 08:00:00 -3.8 0 Calma 9 Sudoeste 0 -- -- 87
2020-01-08 07:00:00 -3.6 8 Sur 11 Sur 0 -- -- 84
2020-01-08 06:00:00 -3.1 0 Calma 4 Sudeste 0 -- -- 84
2020-01-08 05:00:00 -2.2 2 Sur 5 Sur 0 -- -- 85
2020-01-08 04:00:00 -2.2 4 Sur 6 Sudeste 0 -- -- 91
2020-01-08 03:00:00 -2.9 4 Sudeste 5 Sudeste 0 -- -- 92
2020-01-08 02:00:00 -3 0 Calma 8 Sur 0 -- -- 88
2020-01-08 01:00:00 -3.5 6 Sur 8 Sur 0 -- -- 93
2020-01-08 00:00:00 -3.5 5 Sur 8 Sur 0 -- -- 95
2020-01-07 23:00:00 -3.7 0 Calma 3 Sudeste 0 -- -- 94
2020-01-07 22:00:00 -2.9 0 Calma 5 Sur 0 -- -- 94
2020-01-07 21:00:00 -1.7 3 Sur 4 Sur 0 -- -- 96
2020-01-07 20:00:00 -0.5 2 Noroeste 3 Norte 0 -- -- 85
2020-01-07 19:00:00 3.7 0 Calma 4 Sudoeste 0 -- -- 82
2020-01-07 18:00:00 7 2 Noroeste 5 Oeste 0 -- -- 76
2020-01-07 17:00:00 9.6 3 Oeste 5 Oeste 0 -- -- 66
2020-01-07 16:00:00 9.2 3 Noroeste 6 Noroeste 0 -- -- 65
2020-01-07 15:00:00 8.3 4 Noroeste 9 Noroeste 0 -- -- 65
2020-01-07 14:00:00 7.8 8 Noroeste 10 Noroeste 0 -- -- 73
2020-01-07 13:00:00 5.6 3 Este 7 Noroeste 0 -- -- 80
2020-01-07 12:00:00 1.4 3 Norte 5 Sudeste 0 -- -- 87
2020-01-07 11:00:00 -1.9 0 Calma 3 Sudoeste 0.2 -- -- 90
2020-01-07 10:00:00 -4.5 0 Calma 4 Oeste 0 -- -- 95
2020-01-07 09:00:00 -5.9 2 Noroeste 6 Noroeste 0 -- -- 95
2020-01-07 08:00:00 -5.1 3 Sudeste 5 Sudeste 0 -- -- 96
2020-01-07 07:00:00 -5.6 2 Sudeste 4 Sudoeste 0 -- -- 97
2020-01-07 06:00:00 -5.4 3 Sudoeste 4 Oeste 0 -- -- 95
2020-01-07 05:00:00 -4.7 4 Oeste 5 Oeste 0 -- -- 94
2020-01-07 04:00:00 -3.5 4 Oeste 6 Oeste 0 -- -- 93
2020-01-07 03:00:00 -2.7 2 Oeste 9 Sur 0 -- -- 89
2020-01-07 02:00:00 -2.2 3 Sudoeste 6 Sur 0 -- -- 89
2020-01-07 01:00:00 -1.2 3 Sudeste 6 Sur 0 -- -- 91
2020-01-07 00:00:00 -1.3 3 Sur 6 Sur 0 -- -- 96
2020-01-06 23:00:00 -1.8 0 Calma 5 Sudeste 0 -- -- 94
2020-01-06 22:00:00 -0.8 0 Calma 6 Sur 0 -- -- 95
2020-01-06 21:00:00 0.8 4 Sur 13 Este 0 -- -- 93
2020-01-06 20:00:00 1.2 3 Sudeste 8 Oeste 0 -- -- 94
2020-01-06 19:00:00 2.5 7 Oeste 9 Sudoeste 0 -- -- 90
2020-01-06 18:00:00 5.3 6 Oeste 10 Noroeste 0 -- -- 86
2020-01-06 17:00:00 11.2 6 Noroeste 11 Noroeste 0 -- -- 64
2020-01-06 16:00:00 11.7 5 Noroeste 10 Norte 0 -- -- 55
2020-01-06 15:00:00 12 3 Nordeste 12 Este 0 -- -- 47
2020-01-06 14:00:00 10.1 8 Este 12 Este 0 -- -- 56
2020-01-06 13:00:00 6.2 2 Sur 9 Oeste 0 -- -- 72
2020-01-06 12:00:00 3.4 5 Oeste 12 Oeste 0 -- -- 85
2020-01-06 11:00:00 4 0 Calma 4 Sudeste 0 -- -- 78
2020-01-06 10:00:00 -1.1 0 Calma 8 Este 0 -- -- 98